This is the latest recevied weather packets stored in our database for station/object YN1ZSC-13. If no packets are shown the sender has not sent any weather packets the latest 10 day(s).
| Time | Temp. | Humidity | Pressure | Rain* | Wind** | Luminosity | Snow |
|---|---|---|---|---|---|---|---|
| 1777827126 | 31.11° C | 55% | 1012 hPa | 0 mm | - | - | - |
| 1777826525 | 31.67° C | 55% | 1012 hPa | 0 mm | - | - | - |
| 1777825925 | 31.67° C | 55% | 1012 hPa | 0 mm | - | - | - |
| 1777825324 | 29.44° C | 58% | 1013 hPa | 0 mm | - | - | - |
| 1777824723 | 29.44° C | 58% | 1013 hPa | 0 mm | - | - | - |
| 1777824123 | 30° C | 58% | 1013 hPa | 0 mm | - | - | - |
| 1777823522 | 30.56° C | 58% | 1013 hPa | 0 mm | - | - | - |
| 1777822922 | 30.56° C | 58% | 1013 hPa | 0 mm | - | - | - |
| 1777822321 | 27.78° C | 67% | 1013 hPa | 0 mm | - | - | - |
| 1777821721 | 28.33° C | 67% | 1013 hPa | 0 mm | - | - | - |
| 1777821120 | 27.78° C | 66% | 1013 hPa | 0 mm | - | - | - |
| 1777820519 | 28.33° C | 66% | 1013 hPa | 0 mm | - | - | - |
| 1777819919 | 28.33° C | 66% | 1013 hPa | 0 mm | - | - | - |
| 1777819318 | 28.89° C | 66% | 1013 hPa | 0 mm | - | - | - |
| 1777818718 | 29.44° C | 66% | 1013 hPa | 0 mm | - | - | - |
| 1777818117 | 26.67° C | 68% | 1013 hPa | 0 mm | - | - | - |
| 1777817517 | 27.22° C | 67% | 1013 hPa | 0 mm | - | - | - |
| 1777816916 | 26.67° C | 71% | 1013 hPa | 0 mm | - | - | - |
| 1777816316 | 27.22° C | 71% | 1013 hPa | 0 mm | - | - | - |
| 1777815715 | 26.67° C | 72% | 1013 hPa | 0 mm | - | - | - |
| 1777815114 | 25.56° C | 76% | 1013 hPa | 0 mm | - | - | - |
| 1777814514 | 25.56° C | 77% | 1012 hPa | 0 mm | - | - | - |
| 1777813913 | 26.11° C | 77% | 1012 hPa | 0 mm | - | - | - |
| 1777813313 | 25° C | 77% | 1012 hPa | 0 mm | - | - | - |
| 1777812712 | 25° C | 77% | 1012 hPa | 0 mm | - | - | - |
* Rain latest hour (hover to see other rain measurements)
** Current wind speed in m/s (hover to see current wind gust speed)